createdAt,value
2018-05-10T00:01:35.691Z,33.60
2018-05-10T00:04:04.267Z,33.80
2018-05-10T00:06:32.573Z,38.83
2018-05-10T00:09:00.793Z,32.30
2018-05-10T00:11:29.220Z,36.73
2018-05-10T00:13:57.461Z,41.47
2018-05-10T00:16:25.716Z,35.93
2018-05-10T00:18:53.992Z,37.77
2018-05-10T00:21:22.233Z,43.83
2018-05-10T00:23:51.197Z,35.90
2018-05-10T00:26:19.655Z,34.83
2018-05-10T00:28:49.045Z,31.43
2018-05-10T00:31:18.106Z,37.17
2018-05-10T00:33:46.384Z,39.30
2018-05-10T00:36:16.180Z,38.38
2018-05-10T00:38:45.202Z,36.13
2018-05-10T00:41:14.255Z,31.23
2018-05-10T00:43:43.380Z,35.30
2018-05-10T00:46:11.628Z,41.93
2018-05-10T00:48:40.735Z,32.27
2018-05-10T00:51:09.444Z,38.33
2018-05-10T00:53:37.747Z,32.97
2018-05-10T00:56:06.067Z,32.23
2018-05-10T00:58:35.085Z,33.93
2018-05-10T01:01:03.397Z,30.27
2018-05-10T01:03:31.626Z,26.93
2018-05-10T01:05:59.931Z,27.93
2018-05-10T01:08:28.205Z,23.83
2018-05-10T01:10:56.419Z,25.17
2018-05-10T01:13:30.174Z,22.23
2018-05-10T01:16:03.990Z,18.53
2018-05-10T01:18:39.220Z,13.90
2018-05-10T01:21:12.968Z,11.23
2018-05-10T01:23:46.805Z,13.33
2018-05-10T01:26:21.251Z,16.57
2018-05-10T01:28:55.072Z,21.33
2018-05-10T01:31:28.868Z,11.83
2018-05-10T01:34:02.829Z,17.50
2018-05-10T01:36:37.291Z,15.10
2018-05-10T01:39:11.137Z,14.63
2018-05-10T01:41:45.117Z,19.40
2018-05-10T01:44:19.225Z,19.50
2018-05-10T01:46:53.221Z,16.67
2018-05-10T01:49:27.070Z,19.00
2018-05-10T01:52:01.540Z,16.20
2018-05-10T01:54:35.428Z,18.67
2018-05-10T01:57:09.422Z,13.23
2018-05-10T01:59:43.101Z,13.57
2018-05-10T02:02:17.119Z,14.73
2018-05-10T02:04:51.116Z,16.37
2018-05-10T02:07:25.690Z,10.17
2018-05-10T02:09:59.559Z,10.57
2018-05-10T02:12:33.363Z,9.97
2018-05-10T02:15:07.160Z,9.90
2018-05-10T02:17:40.916Z,14.20
2018-05-10T02:20:14.672Z,15.30
2018-05-10T02:22:48.403Z,12.77
2018-05-10T02:25:22.460Z,11.77
2018-05-10T02:27:56.239Z,10.87
2018-05-10T02:30:31.712Z,7.37
2018-05-10T02:33:05.645Z,13.37
2018-05-10T02:35:39.453Z,6.87
2018-05-10T02:38:13.260Z,14.57
2018-05-10T02:40:47.964Z,13.43
2018-05-10T02:43:23.442Z,11.00
2018-05-10T02:45:58.090Z,14.43
2018-05-10T02:48:32.069Z,12.83
2018-05-10T02:51:06.673Z,12.10
2018-05-10T02:53:41.020Z,12.87
2018-05-10T02:56:14.903Z,10.43
2018-05-10T02:58:49.517Z,13.17
2018-05-10T03:01:23.354Z,20.07
2018-05-10T03:03:57.396Z,13.57
2018-05-10T03:06:31.886Z,13.60
2018-05-10T03:09:06.165Z,18.00
2018-05-10T03:11:39.967Z,17.37
2018-05-10T03:14:13.831Z,15.23
2018-05-10T03:16:47.638Z,14.70
2018-05-10T03:19:21.530Z,16.23
2018-05-10T03:21:55.526Z,11.17
2018-05-10T03:24:30.257Z,18.00
2018-05-10T03:27:04.757Z,13.90
2018-05-10T03:29:39.504Z,12.43
2018-05-10T03:32:13.529Z,15.80
2018-05-10T03:34:47.524Z,21.83
2018-05-10T03:37:21.532Z,13.50
2018-05-10T03:39:56.221Z,17.17
2018-05-10T03:42:30.066Z,13.70
2018-05-10T03:45:03.888Z,19.60
2018-05-10T03:47:37.802Z,21.37
2018-05-10T03:50:12.530Z,21.80
2018-05-10T03:52:46.359Z,25.73
2018-05-10T03:55:20.290Z,22.83
2018-05-10T03:57:54.947Z,19.97
2018-05-10T04:00:28.640Z,18.20
2018-05-10T04:06:28.141Z,18.80
2018-05-10T04:09:14.547Z,26.37
2018-05-10T04:11:48.437Z,17.93
2018-05-10T04:14:22.268Z,22.07
2018-05-10T04:16:56.125Z,17.60
2018-05-10T04:19:30.853Z,17.67
2018-05-10T04:22:04.787Z,21.73
2018-05-10T04:24:38.687Z,22.10
2018-05-10T04:27:13.575Z,22.37
2018-05-10T04:29:47.274Z,24.40
2018-05-10T04:32:22.562Z,20.67
2018-05-10T04:34:57.410Z,18.57
2018-05-10T04:37:31.428Z,23.90
2018-05-10T04:40:05.756Z,18.77
2018-05-10T04:42:40.046Z,25.13
2018-05-10T04:45:13.787Z,21.47
2018-05-10T04:47:47.534Z,20.33
2018-05-10T04:50:21.407Z,17.30
2018-05-10T04:52:55.465Z,20.77
2018-05-10T04:55:29.576Z,21.47
2018-05-10T04:58:03.621Z,27.60
2018-05-10T05:00:44.384Z,20.40
2018-05-10T05:03:19.158Z,21.67
2018-05-10T05:05:53.666Z,23.63
2018-05-10T05:08:28.430Z,22.53
2018-05-10T05:11:02.221Z,24.60
2018-05-10T05:13:35.991Z,22.80
2018-05-10T05:16:09.904Z,22.53
2018-05-10T05:18:43.809Z,27.03
2018-05-10T05:21:17.546Z,21.73
2018-05-10T05:23:51.391Z,27.20
2018-05-10T05:26:25.358Z,23.30
2018-05-10T05:28:59.140Z,26.10
2018-05-10T05:31:32.947Z,25.00
2018-05-10T05:34:07.007Z,35.83
2018-05-10T05:36:40.797Z,29.43
2018-05-10T05:39:15.433Z,31.60
2018-05-10T05:41:49.317Z,31.70
2018-05-10T05:44:23.319Z,24.23
2018-05-10T05:46:57.161Z,26.30
2018-05-10T05:49:30.882Z,22.37
2018-05-10T05:52:05.536Z,26.03
2018-05-10T05:54:39.574Z,29.97
2018-05-10T05:57:14.152Z,30.33
2018-05-10T05:59:48.057Z,22.27
2018-05-10T06:02:21.925Z,31.80
2018-05-10T06:04:56.421Z,29.73
2018-05-10T06:07:30.946Z,26.67
2018-05-10T06:10:04.717Z,25.63
2018-05-10T06:12:39.721Z,27.50
2018-05-10T06:15:13.494Z,28.27
2018-05-10T06:17:47.428Z,24.70
2018-05-10T06:20:21.275Z,26.47
2018-05-10T06:22:55.080Z,30.53
2018-05-10T06:25:28.955Z,29.60
2018-05-10T06:28:02.957Z,27.03
2018-05-10T06:30:36.820Z,28.30
2018-05-10T06:33:10.651Z,27.50
2018-05-10T06:35:44.624Z,27.97
2018-05-10T06:38:18.274Z,22.27
2018-05-10T06:40:52.082Z,30.63
2018-05-10T06:43:25.727Z,25.03
2018-05-10T06:45:59.941Z,23.87
2018-05-10T06:48:33.978Z,27.80
2018-05-10T06:51:08.411Z,25.93
2018-05-10T06:53:42.123Z,30.17
2018-05-10T06:56:16.050Z,33.53
2018-05-10T06:58:50.040Z,31.50
2018-05-10T07:01:24.594Z,27.43
2018-05-10T07:03:58.467Z,22.63
2018-05-10T07:06:32.300Z,26.30
2018-05-10T07:09:06.132Z,26.90
2018-05-10T07:11:40.042Z,26.10
2018-05-10T07:14:13.933Z,28.00
2018-05-10T07:16:47.870Z,30.07
2018-05-10T07:19:23.135Z,33.20
2018-05-10T07:21:57.758Z,37.73
2018-05-10T07:24:31.596Z,34.50
2018-05-10T07:27:07.137Z,30.53
2018-05-10T07:29:41.508Z,35.97
2018-05-10T07:32:15.533Z,35.57
2018-05-10T07:34:50.121Z,43.77
2018-05-10T07:37:24.003Z,36.60
2018-05-10T07:39:57.685Z,41.73
2018-05-10T07:42:32.181Z,34.97
2018-05-10T07:45:06.101Z,29.83
2018-05-10T07:47:40.182Z,20.07
2018-05-10T07:50:08.420Z,19.43
2018-05-10T07:52:36.662Z,21.37
2018-05-10T07:55:04.970Z,19.43
2018-05-10T07:57:33.221Z,25.63
2018-05-10T08:00:01.393Z,18.27
2018-05-10T08:02:29.675Z,21.20
2018-05-10T08:04:58.101Z,29.53
2018-05-10T08:07:26.389Z,19.23
2018-05-10T08:09:55.689Z,26.60
2018-05-10T08:12:24.020Z,25.13
2018-05-10T08:14:52.214Z,23.93
2018-05-10T08:17:20.510Z,18.47
2018-05-10T08:19:48.651Z,17.87
2018-05-10T08:22:16.969Z,23.50
2018-05-10T08:24:45.182Z,28.70
2018-05-10T08:27:13.396Z,31.67
2018-05-10T08:29:47.776Z,36.80
2018-05-10T08:32:16.891Z,31.53
2018-05-10T08:34:45.932Z,39.97
2018-05-10T08:37:14.476Z,35.63
2018-05-10T08:39:43.033Z,34.03
2018-05-10T08:42:11.291Z,35.33
2018-05-10T08:44:39.545Z,28.57
2018-05-10T08:47:07.762Z,30.43
2018-05-10T08:49:36.039Z,28.67
2018-05-10T08:52:04.272Z,23.73
2018-05-10T08:54:34.181Z,22.83
2018-05-10T08:57:02.362Z,24.40
2018-05-10T08:59:30.578Z,22.00
2018-05-10T09:02:00.424Z,18.50
2018-05-10T09:04:28.779Z,15.77
2018-05-10T09:06:57.026Z,19.43
2018-05-10T09:09:25.233Z,19.00
2018-05-10T09:11:54.207Z,14.93
2018-05-10T09:14:22.444Z,20.93
2018-05-10T09:16:50.641Z,16.70
2018-05-10T09:19:18.858Z,16.33
2018-05-10T09:21:47.047Z,12.77
2018-05-10T09:24:15.297Z,14.87
2018-05-10T09:26:44.257Z,12.93
2018-05-10T09:29:12.459Z,11.27
2018-05-10T09:31:41.466Z,14.77
2018-05-10T09:34:09.680Z,12.23
2018-05-10T09:36:37.896Z,13.83
2018-05-10T09:39:06.911Z,12.07
2018-05-10T09:41:35.828Z,11.97
2018-05-10T09:44:04.076Z,11.80
2018-05-10T09:46:32.328Z,11.50
2018-05-10T09:49:01.288Z,10.57
2018-05-10T09:51:29.530Z,9.70
2018-05-10T09:53:57.736Z,13.20
2018-05-10T09:56:25.956Z,8.77
2018-05-10T09:58:54.218Z,11.73
2018-05-10T10:01:23.180Z,9.03
2018-05-10T10:03:51.417Z,9.87
2018-05-10T10:06:19.644Z,10.63
2018-05-10T10:08:47.793Z,8.77
2018-05-10T10:11:16.026Z,11.43
2018-05-10T10:13:44.177Z,11.63
2018-05-10T10:16:13.154Z,11.33
2018-05-10T10:18:42.247Z,8.53
2018-05-10T10:21:10.432Z,6.87
2018-05-10T10:23:39.380Z,8.27
2018-05-10T10:26:07.579Z,10.00
2018-05-10T10:28:35.770Z,13.07
2018-05-10T10:31:04.800Z,7.87
2018-05-10T10:33:33.072Z,11.57
2018-05-10T10:36:01.356Z,7.43
2018-05-10T10:38:29.578Z,11.17
2018-05-10T10:40:57.833Z,5.90
2018-05-10T10:43:27.990Z,9.43
2018-05-10T10:45:56.647Z,11.13
2018-05-10T10:48:25.794Z,9.37
2018-05-10T10:50:54.910Z,9.93
2018-05-10T10:53:23.168Z,11.90
2018-05-10T10:55:51.515Z,8.77
2018-05-10T10:58:20.088Z,8.33
2018-05-10T11:00:49.536Z,8.20
2018-05-10T11:03:17.945Z,9.87
2018-05-10T11:05:46.291Z,10.33
2018-05-10T11:08:14.630Z,11.23
2018-05-10T11:10:43.857Z,7.73
2018-05-10T11:13:12.073Z,7.63
2018-05-10T11:15:40.282Z,9.83
2018-05-10T11:18:08.554Z,10.60
2018-05-10T11:20:36.928Z,9.70
2018-05-10T11:23:05.953Z,10.53
2018-05-10T11:25:34.569Z,7.83
2018-05-10T11:28:02.848Z,11.07
2018-05-10T11:30:31.868Z,8.67
2018-05-10T11:33:00.162Z,9.60
2018-05-10T11:35:28.277Z,8.63
2018-05-10T11:37:56.464Z,9.23
2018-05-10T11:40:24.629Z,7.63
2018-05-10T11:42:52.823Z,9.57
2018-05-10T11:45:21.799Z,9.33
2018-05-10T11:47:49.997Z,7.60
2018-05-10T11:50:18.693Z,6.20
2018-05-10T11:52:46.933Z,8.17
2018-05-10T11:55:15.275Z,5.07
2018-05-10T11:57:43.969Z,6.53
2018-05-10T12:00:12.728Z,9.33
2018-05-10T12:02:41.076Z,6.80
2018-05-10T12:05:09.217Z,9.60
2018-05-10T12:07:37.548Z,4.87
2018-05-10T12:10:05.764Z,5.30
2018-05-10T12:12:34.331Z,7.27
2018-05-10T12:15:02.549Z,7.60
2018-05-10T12:17:31.510Z,5.30
2018-05-10T12:19:59.710Z,7.33
2018-05-10T12:22:28.693Z,7.20
2018-05-10T12:24:57.689Z,5.63
2018-05-10T12:27:26.697Z,7.93
2018-05-10T12:29:55.686Z,4.93
2018-05-10T12:32:24.622Z,6.50
2018-05-10T12:34:52.834Z,5.77
2018-05-10T12:37:21.795Z,9.27
2018-05-10T12:39:50.109Z,6.10
2018-05-10T12:42:19.171Z,6.13
2018-05-10T12:44:47.547Z,5.27
2018-05-10T12:47:15.817Z,5.30
2018-05-10T12:49:43.995Z,6.83
2018-05-10T12:52:12.989Z,8.67
2018-05-10T12:54:41.169Z,9.87
2018-05-10T12:57:09.468Z,8.57
2018-05-10T12:59:38.431Z,9.13
2018-05-10T13:02:06.641Z,9.77
2018-05-10T13:04:34.913Z,9.30
2018-05-10T13:07:03.995Z,8.90
2018-05-10T13:09:32.975Z,7.87
2018-05-10T13:12:01.339Z,6.63
2018-05-10T13:14:29.616Z,7.93
2018-05-10T13:16:57.879Z,9.43
2018-05-10T13:19:26.176Z,10.33
2018-05-10T13:21:54.380Z,8.67
2018-05-10T13:24:22.582Z,6.43
2018-05-10T13:26:50.765Z,8.00
2018-05-10T13:29:18.980Z,11.97
2018-05-10T13:31:47.996Z,5.53
2018-05-10T13:34:16.364Z,10.40
2018-05-10T13:36:44.649Z,10.80
2018-05-10T13:39:12.895Z,9.03
2018-05-10T13:41:42.521Z,8.77
2018-05-10T13:44:11.493Z,7.80
2018-05-10T13:46:40.542Z,9.43
2018-05-10T13:49:08.745Z,10.87
2018-05-10T13:51:36.981Z,14.73
2018-05-10T13:54:05.257Z,13.43
2018-05-10T13:56:33.616Z,10.23
2018-05-10T13:59:02.010Z,9.00
2018-05-10T14:01:30.197Z,10.40
2018-05-10T14:03:58.530Z,11.37
2018-05-10T14:06:27.608Z,16.10
2018-05-10T14:08:55.943Z,13.83
2018-05-10T14:11:24.271Z,14.47
2018-05-10T14:13:52.603Z,13.07
2018-05-10T14:16:20.879Z,11.50
2018-05-10T14:18:49.164Z,12.23
2018-05-10T14:21:17.629Z,11.30
2018-05-10T14:23:47.265Z,11.13
2018-05-10T14:26:15.635Z,10.67
2018-05-10T14:28:44.647Z,10.37
2018-05-10T14:31:13.020Z,10.93
2018-05-10T14:33:42.246Z,14.10
2018-05-10T14:36:10.572Z,12.43
2018-05-10T14:38:39.497Z,14.87
2018-05-10T14:41:08.901Z,14.10
2018-05-10T14:43:38.268Z,12.57
2018-05-10T14:46:06.780Z,18.10
2018-05-10T14:48:37.164Z,14.10
2018-05-10T14:51:07.945Z,18.80
2018-05-10T14:54:02.899Z,16.37
2018-05-10T14:57:04.838Z,13.83
2018-05-10T14:59:33.998Z,16.57
2018-05-10T15:18:50.810Z,8.07
2018-05-10T15:25:22.937Z,7.57
2018-05-10T15:34:57.066Z,10.40
2018-05-10T15:40:06.476Z,7.70
2018-05-10T15:46:14.579Z,9.50
2018-05-10T15:52:19.235Z,11.37
2018-05-10T15:54:47.893Z,9.77
2018-05-10T15:57:31.018Z,8.30
2018-05-10T16:03:47.565Z,5.90
2018-05-10T16:16:42.451Z,12.63
2018-05-10T16:19:14.128Z,15.50
2018-05-10T16:21:43.908Z,12.43
2018-05-10T16:24:31.415Z,10.10
2018-05-10T16:27:15.567Z,10.87
2018-05-10T16:29:47.038Z,10.57
2018-05-10T16:39:24.212Z,17.57
2018-05-10T16:45:07.209Z,15.80
2018-05-10T17:07:42.483Z,12.40
2018-05-10T17:10:12.348Z,15.63
2018-05-10T17:12:41.720Z,11.57
2018-05-10T17:15:10.901Z,12.80
2018-05-10T17:24:48.424Z,17.10
2018-05-10T17:27:17.946Z,17.03
2018-05-10T17:29:48.682Z,13.23
2018-05-10T17:32:25.679Z,19.07
2018-05-10T17:34:54.357Z,16.27
2018-05-10T17:37:23.590Z,14.73
2018-05-10T17:39:51.958Z,16.77
2018-05-10T17:42:20.364Z,16.63
2018-05-10T17:44:49.539Z,14.77
2018-05-10T17:47:17.837Z,19.87
2018-05-10T17:49:46.228Z,14.53
2018-05-10T17:52:14.562Z,11.37
2018-05-10T17:54:42.841Z,6.13
2018-05-10T17:57:14.984Z,8.43
2018-05-10T17:59:43.625Z,14.30
2018-05-10T18:02:14.726Z,10.83
2018-05-10T18:04:43.037Z,12.03
2018-05-10T18:07:12.104Z,16.67
2018-05-10T18:09:40.313Z,8.53
2018-05-10T18:12:09.167Z,12.20
2018-05-10T18:14:37.529Z,17.80
2018-05-10T18:17:05.899Z,13.97
2018-05-10T18:19:34.300Z,9.77
2018-05-10T18:22:02.762Z,11.13
2018-05-10T18:24:31.061Z,17.10
2018-05-10T18:27:00.122Z,13.03
2018-05-10T18:29:28.601Z,15.70
2018-05-10T18:31:57.102Z,15.87
2018-05-10T18:34:25.816Z,14.13
2018-05-10T18:36:54.080Z,15.47
2018-05-10T18:39:23.130Z,16.30
2018-05-10T18:41:51.437Z,12.87
2018-05-10T18:44:19.666Z,18.73
2018-05-10T18:46:47.940Z,15.23
2018-05-10T18:49:16.207Z,16.23
2018-05-10T18:51:44.439Z,12.17
2018-05-10T18:54:12.637Z,13.80
2018-05-10T18:56:40.940Z,10.50
2018-05-10T18:59:09.517Z,15.63
2018-05-10T19:01:44.457Z,17.00
2018-05-10T19:04:15.962Z,16.63
2018-05-10T19:06:45.721Z,14.13
2018-05-10T19:09:20.850Z,15.70
2018-05-10T19:11:49.178Z,15.37
2018-05-10T19:14:17.780Z,12.83
2018-05-10T19:16:46.476Z,19.67
2018-05-10T19:19:15.766Z,13.07
2018-05-10T19:21:44.390Z,12.60
2018-05-10T19:24:12.805Z,21.03
2018-05-10T19:26:42.088Z,17.23
2018-05-10T19:29:10.577Z,11.70
2018-05-10T19:31:41.942Z,16.10
2018-05-10T19:34:10.946Z,16.43
2018-05-10T19:36:39.962Z,18.43
2018-05-10T19:39:08.374Z,8.70
2018-05-10T19:41:42.015Z,11.67
2018-05-10T19:44:10.376Z,13.37
2018-05-10T19:46:40.851Z,17.40
2018-05-10T19:49:10.350Z,15.10
2018-05-10T19:51:38.685Z,14.60
2018-05-10T19:54:07.958Z,15.90
2018-05-10T19:56:36.168Z,19.93
2018-05-10T19:59:04.444Z,15.27
2018-05-10T20:01:41.206Z,18.43
2018-05-10T20:04:10.816Z,16.27
2018-05-10T20:06:42.587Z,17.53
2018-05-10T20:09:11.714Z,19.57
2018-05-10T20:11:40.189Z,19.30
2018-05-10T20:14:08.502Z,17.13
2018-05-10T20:16:37.216Z,20.73
2018-05-10T20:19:05.517Z,22.70
2018-05-10T20:21:33.768Z,24.63
2018-05-10T20:24:03.346Z,21.33
2018-05-10T20:26:31.712Z,20.67
2018-05-10T20:29:00.123Z,19.67
2018-05-10T20:31:28.501Z,15.63
2018-05-10T20:33:57.855Z,19.93
2018-05-10T20:36:27.201Z,22.13
2018-05-10T20:38:55.544Z,23.07
2018-05-10T20:41:24.663Z,18.07
2018-05-10T20:43:53.747Z,20.37
2018-05-10T20:46:22.043Z,13.10
2018-05-10T20:48:51.636Z,16.70
2018-05-10T20:51:20.468Z,28.37
2018-05-10T20:53:49.220Z,19.60
2018-05-10T20:56:19.613Z,20.27
2018-05-10T20:58:48.142Z,20.73
2018-05-10T21:01:16.637Z,20.97
2018-05-10T21:03:45.028Z,16.70
2018-05-10T21:06:14.318Z,21.60
2018-05-10T21:08:42.682Z,19.57
2018-05-10T21:11:10.904Z,19.10
2018-05-10T21:13:39.445Z,14.00
2018-05-10T21:16:08.026Z,17.60
2018-05-10T21:18:36.478Z,18.50
2018-05-10T21:21:05.142Z,23.63
2018-05-10T21:23:34.340Z,15.00
2018-05-10T21:26:04.146Z,20.37
2018-05-10T21:28:32.494Z,15.07
2018-05-10T21:31:00.784Z,17.30
2018-05-10T21:33:29.270Z,18.73
2018-05-10T21:35:57.633Z,16.27
2018-05-10T21:38:26.803Z,15.93
2018-05-10T21:40:56.171Z,17.73
2018-05-10T21:43:25.061Z,21.80
2018-05-10T21:45:54.293Z,21.20
2018-05-10T21:48:22.703Z,18.27
2018-05-10T21:50:51.118Z,20.03
2018-05-10T21:53:20.164Z,20.90
2018-05-10T21:55:48.484Z,18.40
2018-05-10T21:58:16.831Z,16.10
2018-05-10T22:00:52.447Z,18.37
2018-05-10T22:03:21.090Z,24.27
2018-05-10T22:05:49.366Z,24.00
2018-05-10T22:08:18.417Z,10.00
2018-05-10T22:10:46.789Z,23.40
2018-05-10T22:13:15.128Z,19.17
2018-05-10T22:15:43.385Z,23.67
2018-05-10T22:18:12.609Z,25.03
2018-05-10T22:20:40.874Z,18.43
2018-05-10T22:23:09.439Z,19.57
2018-05-10T22:25:39.151Z,18.50
2018-05-10T22:28:08.849Z,15.23
2018-05-10T22:30:37.401Z,20.23
2018-05-10T22:33:05.814Z,17.67
2018-05-10T22:35:35.228Z,14.80
2018-05-10T22:38:04.823Z,20.27
2018-05-10T22:43:36.516Z,22.23
2018-05-10T22:46:05.077Z,21.50
2018-05-10T22:48:36.238Z,20.33
2018-05-10T22:51:05.262Z,18.57
2018-05-10T22:53:34.498Z,14.13
2018-05-10T22:56:04.530Z,17.90
2018-05-10T22:58:33.632Z,22.70
2018-05-10T23:01:02.229Z,20.70
2018-05-10T23:03:36.006Z,28.23
2018-05-10T23:06:14.685Z,18.30
2018-05-10T23:08:43.501Z,20.80
2018-05-10T23:11:12.905Z,23.43
2018-05-10T23:13:50.065Z,19.00
2018-05-10T23:16:19.971Z,18.37
2018-05-10T23:18:49.279Z,17.33
2018-05-10T23:21:23.417Z,15.83
2018-05-10T23:23:57.503Z,19.73
2018-05-10T23:26:31.422Z,22.63
2018-05-10T23:29:05.592Z,19.43
2018-05-10T23:31:40.216Z,18.80
2018-05-10T23:34:14.044Z,19.03
2018-05-10T23:36:50.018Z,19.80
2018-05-10T23:39:24.849Z,23.63
2018-05-10T23:41:58.858Z,25.83
2018-05-10T23:44:33.074Z,24.83
2018-05-10T23:47:06.981Z,23.43
2018-05-10T23:49:41.312Z,20.10
2018-05-10T23:52:15.517Z,23.40
2018-05-10T23:54:49.319Z,25.83
2018-05-10T23:57:23.233Z,20.47
2018-05-10T23:59:57.195Z,22.90
